sensor_id;sensor_type;location;lat;lon;timestamp;temperature;humidity
43143;DHT22;28750;59.842;17.584;2023-04-01T00:01:14;-6.50;99.90
43143;DHT22;28750;59.842;17.584;2023-04-01T00:03:42;-6.60;99.90
43143;DHT22;28750;59.842;17.584;2023-04-01T00:06:09;-6.60;99.90
43143;DHT22;28750;59.842;17.584;2023-04-01T00:08:37;-6.80;99.90
43143;DHT22;28750;59.842;17.584;2023-04-01T00:11:04;-6.90;99.90
43143;DHT22;28750;59.842;17.584;2023-04-01T00:13:31;-6.80;99.90
43143;DHT22;28750;59.842;17.584;2023-04-01T00:15:58;-6.80;99.90
43143;DHT22;28750;59.842;17.584;2023-04-01T00:18:25;-6.80;99.90
43143;DHT22;28750;59.842;17.584;2023-04-01T00:20:51;-7.00;90.80
43143;DHT22;28750;59.842;17.584;2023-04-01T00:23:18;-6.90;99.90
43143;DHT22;28750;59.842;17.584;2023-04-01T00:25:45;-6.90;89.30
43143;DHT22;28750;59.842;17.584;2023-04-01T00:28:16;-7.00;63.50
43143;DHT22;28750;59.842;17.584;2023-04-01T00:30:44;-7.10;99.90
43143;DHT22;28750;59.842;17.584;2023-04-01T00:33:11;-7.10;99.90
43143;DHT22;28750;59.842;17.584;2023-04-01T00:35:37;-6.70;99.90
43143;DHT22;28750;59.842;17.584;2023-04-01T00:38:04;-6.60;97.10
43143;DHT22;28750;59.842;17.584;2023-04-01T00:40:36;-6.60;1.00
43143;DHT22;28750;59.842;17.584;2023-04-01T00:43:05;-6.60;1.00
43143;DHT22;28750;59.842;17.584;2023-04-01T00:45:36;-6.90;1.00
43143;DHT22;28750;59.842;17.584;2023-04-01T00:48:08;-7.00;1.00
43143;DHT22;28750;59.842;17.584;2023-04-01T00:50:35;-7.10;59.20
43143;DHT22;28750;59.842;17.584;2023-04-01T00:53:03;-7.00;99.90
43143;DHT22;28750;59.842;17.584;2023-04-01T00:55:32;-7.20;99.90
43143;DHT22;28750;59.842;17.584;2023-04-01T00:58:00;-7.20;99.90
43143;DHT22;28750;59.842;17.584;2023-04-01T01:00:28;-7.30;1.00
43143;DHT22;28750;59.842;17.584;2023-04-01T01:02:56;-7.40;1.00
43143;DHT22;28750;59.842;17.584;2023-04-01T01:05:27;-7.40;89.40
43143;DHT22;28750;59.842;17.584;2023-04-01T01:08:03;-7.30;94.60
43143;DHT22;28750;59.842;17.584;2023-04-01T01:10:33;-7.30;1.40
43143;DHT22;28750;59.842;17.584;2023-04-01T01:15:30;-7.30;14.30
43143;DHT22;28750;59.842;17.584;2023-04-01T01:20:48;-7.50;1.00
43143;DHT22;28750;59.842;17.584;2023-04-01T01:28:35;-7.50;1.00
43143;DHT22;28750;59.842;17.584;2023-04-01T01:31:15;-7.60;90.50
43143;DHT22;28750;59.842;17.584;2023-04-01T01:33:52;-7.50;9.00
43143;DHT22;28750;59.842;17.584;2023-04-01T01:36:26;-7.40;1.00
43143;DHT22;28750;59.842;17.584;2023-04-01T01:38:54;-7.50;99.90
43143;DHT22;28750;59.842;17.584;2023-04-01T01:41:22;-7.50;1.00
43143;DHT22;28750;59.842;17.584;2023-04-01T01:43:50;-7.50;1.00
43143;DHT22;28750;59.842;17.584;2023-04-01T01:46:18;-7.50;1.00
43143;DHT22;28750;59.842;17.584;2023-04-01T01:48:45;-7.30;1.00
43143;DHT22;28750;59.842;17.584;2023-04-01T01:51:13;-7.30;1.00
43143;DHT22;28750;59.842;17.584;2023-04-01T01:53:41;-7.40;99.90
43143;DHT22;28750;59.842;17.584;2023-04-01T01:56:09;-7.40;99.90
43143;DHT22;28750;59.842;17.584;2023-04-01T01:58:39;-7.20;99.90
43143;DHT22;28750;59.842;17.584;2023-04-01T02:01:15;-7.20;99.90
43143;DHT22;28750;59.842;17.584;2023-04-01T02:03:43;-7.40;99.90
43143;DHT22;28750;59.842;17.584;2023-04-01T02:06:13;-7.40;99.90
43143;DHT22;28750;59.842;17.584;2023-04-01T02:08:42;-7.50;99.90
43143;DHT22;28750;59.842;17.584;2023-04-01T02:11:11;-7.50;99.90
43143;DHT22;28750;59.842;17.584;2023-04-01T02:13:58;-7.50;99.90
43143;DHT22;28750;59.842;17.584;2023-04-01T02:16:32;-7.50;99.90
43143;DHT22;28750;59.842;17.584;2023-04-01T02:19:00;-7.80;99.90
43143;DHT22;28750;59.842;17.584;2023-04-01T02:21:33;-7.80;1.00
43143;DHT22;28750;59.842;17.584;2023-04-01T02:24:01;-8.00;1.00
43143;DHT22;28750;59.842;17.584;2023-04-01T02:26:28;-7.90;1.00
43143;DHT22;28750;59.842;17.584;2023-04-01T02:28:55;-7.90;1.00
43143;DHT22;28750;59.842;17.584;2023-04-01T02:31:23;-8.00;1.00
43143;DHT22;28750;59.842;17.584;2023-04-01T02:33:50;-8.00;1.00
43143;DHT22;28750;59.842;17.584;2023-04-01T02:36:16;-7.90;1.00
43143;DHT22;28750;59.842;17.584;2023-04-01T02:38:44;-8.00;99.90
43143;DHT22;28750;59.842;17.584;2023-04-01T02:41:11;-7.90;99.90
43143;DHT22;28750;59.842;17.584;2023-04-01T02:43:38;-7.80;99.90
43143;DHT22;28750;59.842;17.584;2023-04-01T02:46:05;-7.60;99.90
43143;DHT22;28750;59.842;17.584;2023-04-01T02:48:32;-7.70;99.90
43143;DHT22;28750;59.842;17.584;2023-04-01T02:50:58;-7.50;99.90
43143;DHT22;28750;59.842;17.584;2023-04-01T02:53:25;-7.50;99.90
43143;DHT22;28750;59.842;17.584;2023-04-01T02:55:52;-7.50;99.90
43143;DHT22;28750;59.842;17.584;2023-04-01T02:58:19;-7.50;46.10
43143;DHT22;28750;59.842;17.584;2023-04-01T03:00:46;-7.60;2.70
43143;DHT22;28750;59.842;17.584;2023-04-01T03:03:12;-7.50;37.60
43143;DHT22;28750;59.842;17.584;2023-04-01T03:05:39;-7.60;1.00
43143;DHT22;28750;59.842;17.584;2023-04-01T03:08:06;-7.60;1.00
43143;DHT22;28750;59.842;17.584;2023-04-01T03:10:33;-7.60;16.50
43143;DHT22;28750;59.842;17.584;2023-04-01T03:13:00;-7.50;47.60
43143;DHT22;28750;59.842;17.584;2023-04-01T03:15:26;-7.60;7.00
43143;DHT22;28750;59.842;17.584;2023-04-01T03:17:53;-7.60;7.30
43143;DHT22;28750;59.842;17.584;2023-04-01T03:20:20;-7.50;32.80
43143;DHT22;28750;59.842;17.584;2023-04-01T03:22:47;-7.80;1.00
43143;DHT22;28750;59.842;17.584;2023-04-01T03:25:13;-7.80;1.00
43143;DHT22;28750;59.842;17.584;2023-04-01T03:27:40;-7.80;8.70
43143;DHT22;28750;59.842;17.584;2023-04-01T03:30:07;-7.80;1.00
43143;DHT22;28750;59.842;17.584;2023-04-01T03:32:34;-7.80;14.40
43143;DHT22;28750;59.842;17.584;2023-04-01T03:35:01;-7.80;19.10
43143;DHT22;28750;59.842;17.584;2023-04-01T03:37:28;-7.90;6.40
43143;DHT22;28750;59.842;17.584;2023-04-01T03:39:55;-7.90;14.80
43143;DHT22;28750;59.842;17.584;2023-04-01T03:42:22;-8.00;5.90
43143;DHT22;28750;59.842;17.584;2023-04-01T03:44:49;-8.00;30.10
43143;DHT22;28750;59.842;17.584;2023-04-01T03:47:15;-8.10;52.80
43143;DHT22;28750;59.842;17.584;2023-04-01T03:49:42;-7.90;93.80
43143;DHT22;28750;59.842;17.584;2023-04-01T03:52:10;-8.20;8.20
43143;DHT22;28750;59.842;17.584;2023-04-01T03:54:37;-8.00;99.90
43143;DHT22;28750;59.842;17.584;2023-04-01T03:57:04;-8.00;99.90
43143;DHT22;28750;59.842;17.584;2023-04-01T03:59:31;-8.10;99.90
43143;DHT22;28750;59.842;17.584;2023-04-01T04:01:57;-8.20;99.90
43143;DHT22;28750;59.842;17.584;2023-04-01T04:04:24;-8.20;99.90
43143;DHT22;28750;59.842;17.584;2023-04-01T04:06:51;-8.30;99.90
43143;DHT22;28750;59.842;17.584;2023-04-01T04:09:18;-8.20;99.90
43143;DHT22;28750;59.842;17.584;2023-04-01T04:11:45;-8.30;99.90
43143;DHT22;28750;59.842;17.584;2023-04-01T04:14:12;-8.20;99.90
43143;DHT22;28750;59.842;17.584;2023-04-01T04:16:38;-8.10;99.90
43143;DHT22;28750;59.842;17.584;2023-04-01T04:19:05;-8.00;99.90
43143;DHT22;28750;59.842;17.584;2023-04-01T04:21:32;-8.00;99.90
43143;DHT22;28750;59.842;17.584;2023-04-01T04:24:00;-8.10;99.90
43143;DHT22;28750;59.842;17.584;2023-04-01T04:26:27;-7.90;99.90
43143;DHT22;28750;59.842;17.584;2023-04-01T04:28:54;-7.90;99.90
43143;DHT22;28750;59.842;17.584;2023-04-01T04:31:21;-7.80;99.90
43143;DHT22;28750;59.842;17.584;2023-04-01T04:33:48;-7.60;99.90
43143;DHT22;28750;59.842;17.584;2023-04-01T04:36:16;-7.70;99.90
43143;DHT22;28750;59.842;17.584;2023-04-01T04:38:43;-7.80;99.90
43143;DHT22;28750;59.842;17.584;2023-04-01T04:41:11;-7.70;99.90
43143;DHT22;28750;59.842;17.584;2023-04-01T04:43:39;-7.50;99.90
43143;DHT22;28750;59.842;17.584;2023-04-01T04:46:09;-7.40;99.90
43143;DHT22;28750;59.842;17.584;2023-04-01T04:48:36;-7.20;99.90
43143;DHT22;28750;59.842;17.584;2023-04-01T04:51:03;-7.30;99.90
43143;DHT22;28750;59.842;17.584;2023-04-01T04:53:30;-7.30;99.90
43143;DHT22;28750;59.842;17.584;2023-04-01T04:55:57;-7.30;99.90
43143;DHT22;28750;59.842;17.584;2023-04-01T04:58:23;-6.50;99.90
43143;DHT22;28750;59.842;17.584;2023-04-01T05:00:50;-5.90;1.00
43143;DHT22;28750;59.842;17.584;2023-04-01T05:03:17;-5.30;99.90
43143;DHT22;28750;59.842;17.584;2023-04-01T05:05:51;-4.60;99.90
43143;DHT22;28750;59.842;17.584;2023-04-01T05:08:18;-5.30;1.00
43143;DHT22;28750;59.842;17.584;2023-04-01T05:10:45;-5.80;1.00
43143;DHT22;28750;59.842;17.584;2023-04-01T05:13:11;-6.00;99.90
43143;DHT22;28750;59.842;17.584;2023-04-01T05:15:38;-5.80;99.90
43143;DHT22;28750;59.842;17.584;2023-04-01T05:18:05;-5.60;99.90
43143;DHT22;28750;59.842;17.584;2023-04-01T05:20:32;-5.50;99.90
43143;DHT22;28750;59.842;17.584;2023-04-01T05:22:59;-5.40;99.90
43143;DHT22;28750;59.842;17.584;2023-04-01T05:25:26;-5.20;99.90
43143;DHT22;28750;59.842;17.584;2023-04-01T05:27:53;-5.00;1.00
43143;DHT22;28750;59.842;17.584;2023-04-01T05:30:20;-5.00;99.90
43143;DHT22;28750;59.842;17.584;2023-04-01T05:32:47;-4.90;1.00
43143;DHT22;28750;59.842;17.584;2023-04-01T05:35:14;-4.30;1.00
43143;DHT22;28750;59.842;17.584;2023-04-01T05:37:40;-4.60;99.90
43143;DHT22;28750;59.842;17.584;2023-04-01T05:40:07;-4.50;99.90
43143;DHT22;28750;59.842;17.584;2023-04-01T05:42:34;-4.60;99.90
43143;DHT22;28750;59.842;17.584;2023-04-01T05:45:01;-4.00;99.90
43143;DHT22;28750;59.842;17.584;2023-04-01T05:47:28;-3.90;99.90
43143;DHT22;28750;59.842;17.584;2023-04-01T05:49:54;-3.80;99.90
43143;DHT22;28750;59.842;17.584;2023-04-01T05:52:21;-3.90;99.90
43143;DHT22;28750;59.842;17.584;2023-04-01T05:54:48;-3.90;99.90
43143;DHT22;28750;59.842;17.584;2023-04-01T05:57:15;-4.00;99.90
43143;DHT22;28750;59.842;17.584;2023-04-01T05:59:42;-3.80;99.90
43143;DHT22;28750;59.842;17.584;2023-04-01T06:02:09;-3.80;99.90
43143;DHT22;28750;59.842;17.584;2023-04-01T06:04:37;-3.60;99.90
43143;DHT22;28750;59.842;17.584;2023-04-01T06:07:14;-3.50;99.90
43143;DHT22;28750;59.842;17.584;2023-04-01T06:09:42;-3.30;99.90
43143;DHT22;28750;59.842;17.584;2023-04-01T06:27:28;-3.30;67.90
43143;DHT22;28750;59.842;17.584;2023-04-01T06:35:11;-3.20;99.90
43143;DHT22;28750;59.842;17.584;2023-04-01T06:45:36;-2.70;99.90
43143;DHT22;28750;59.842;17.584;2023-04-01T06:50:58;-2.60;99.90
43143;DHT22;28750;59.842;17.584;2023-04-01T06:56:11;-2.20;1.00
43143;DHT22;28750;59.842;17.584;2023-04-01T06:58:49;-2.10;99.90
43143;DHT22;28750;59.842;17.584;2023-04-01T07:01:18;-1.80;1.00
43143;DHT22;28750;59.842;17.584;2023-04-01T07:03:55;-1.80;99.90
43143;DHT22;28750;59.842;17.584;2023-04-01T07:06:28;-1.70;99.90
43143;DHT22;28750;59.842;17.584;2023-04-01T07:08:58;-1.40;99.90
43143;DHT22;28750;59.842;17.584;2023-04-01T07:11:28;-1.40;99.90
43143;DHT22;28750;59.842;17.584;2023-04-01T07:13:59;-1.30;99.90
43143;DHT22;28750;59.842;17.584;2023-04-01T07:16:34;-1.40;99.90
43143;DHT22;28750;59.842;17.584;2023-04-01T07:19:05;-1.30;99.90
43143;DHT22;28750;59.842;17.584;2023-04-01T07:21:37;-1.00;99.90
43143;DHT22;28750;59.842;17.584;2023-04-01T07:24:10;-1.00;99.90
43143;DHT22;28750;59.842;17.584;2023-04-01T07:26:38;-0.90;99.90
43143;DHT22;28750;59.842;17.584;2023-04-01T07:29:08;-0.80;99.90
43143;DHT22;28750;59.842;17.584;2023-04-01T07:34:28;-0.80;99.90
43143;DHT22;28750;59.842;17.584;2023-04-01T07:37:00;-0.70;1.00
43143;DHT22;28750;59.842;17.584;2023-04-01T07:39:35;-0.60;1.00
43143;DHT22;28750;59.842;17.584;2023-04-01T07:42:21;-0.50;1.00
43143;DHT22;28750;59.842;17.584;2023-04-01T07:52:44;0.40;99.90
43143;DHT22;28750;59.842;17.584;2023-04-01T07:55:17;0.60;99.90
43143;DHT22;28750;59.842;17.584;2023-04-01T07:57:49;0.80;99.90
43143;DHT22;28750;59.842;17.584;2023-04-01T08:00:20;1.00;99.90
43143;DHT22;28750;59.842;17.584;2023-04-01T08:08:36;1.80;1.00
43143;DHT22;28750;59.842;17.584;2023-04-01T08:11:51;2.00;1.00
43143;DHT22;28750;59.842;17.584;2023-04-01T08:14:02;2.00;1.00
43143;DHT22;28750;59.842;17.584;2023-04-01T08:21:49;2.40;99.90
43143;DHT22;28750;59.842;17.584;2023-04-01T08:24:33;2.30;99.90
43143;DHT22;28750;59.842;17.584;2023-04-01T08:27:03;2.40;99.90
43143;DHT22;28750;59.842;17.584;2023-04-01T08:29:41;2.50;99.90
43143;DHT22;28750;59.842;17.584;2023-04-01T08:34:43;2.70;99.90
43143;DHT22;28750;59.842;17.584;2023-04-01T08:37:19;3.00;99.90
43143;DHT22;28750;59.842;17.584;2023-04-01T08:39:54;3.00;99.90
43143;DHT22;28750;59.842;17.584;2023-04-01T08:53:21;3.10;1.00
43143;DHT22;28750;59.842;17.584;2023-04-01T09:06:57;3.50;99.90
43143;DHT22;28750;59.842;17.584;2023-04-01T09:14:46;3.60;99.90
43143;DHT22;28750;59.842;17.584;2023-04-01T09:28:12;4.20;1.00
43143;DHT22;28750;59.842;17.584;2023-04-01T09:39:11;5.00;99.90
43143;DHT22;28750;59.842;17.584;2023-04-01T09:44:36;5.50;87.20
43143;DHT22;28750;59.842;17.584;2023-04-01T09:47:23;5.40;71.50
43143;DHT22;28750;59.842;17.584;2023-04-01T09:52:29;5.90;78.50
43143;DHT22;28750;59.842;17.584;2023-04-01T09:55:21;5.90;3.70
43143;DHT22;28750;59.842;17.584;2023-04-01T10:00:40;6.20;1.00
43143;DHT22;28750;59.842;17.584;2023-04-01T10:03:30;6.40;1.00
43143;DHT22;28750;59.842;17.584;2023-04-01T10:09:07;6.80;1.00
43143;DHT22;28750;59.842;17.584;2023-04-01T10:11:59;6.80;99.90
43143;DHT22;28750;59.842;17.584;2023-04-01T10:22:50;7.50;99.90
43143;DHT22;28750;59.842;17.584;2023-04-01T11:00:20;9.00;99.90
43143;DHT22;28750;59.842;17.584;2023-04-01T11:03:16;9.10;99.90
43143;DHT22;28750;59.842;17.584;2023-04-01T11:05:58;8.80;99.90
43143;DHT22;28750;59.842;17.584;2023-04-01T11:21:54;8.60;99.90
43143;DHT22;28750;59.842;17.584;2023-04-01T11:32:39;8.30;99.90
43143;DHT22;28750;59.842;17.584;2023-04-01T11:35:19;8.60;99.90
43143;DHT22;28750;59.842;17.584;2023-04-01T11:37:54;8.70;99.90
43143;DHT22;28750;59.842;17.584;2023-04-01T11:40:47;8.60;99.90
43143;DHT22;28750;59.842;17.584;2023-04-01T11:46:10;7.70;99.90
43143;DHT22;28750;59.842;17.584;2023-04-01T11:48:56;8.10;99.90
43143;DHT22;28750;59.842;17.584;2023-04-01T11:51:32;8.30;99.90
43143;DHT22;28750;59.842;17.584;2023-04-01T11:54:24;7.90;99.90
43143;DHT22;28750;59.842;17.584;2023-04-01T12:07:53;8.00;99.90
43143;DHT22;28750;59.842;17.584;2023-04-01T12:15:48;8.10;99.90
43143;DHT22;28750;59.842;17.584;2023-04-01T12:18:25;7.80;99.90
43143;DHT22;28750;59.842;17.584;2023-04-01T12:49:57;7.20;99.90
43143;DHT22;28750;59.842;17.584;2023-04-01T12:52:55;7.60;99.90
43143;DHT22;28750;59.842;17.584;2023-04-01T13:00:39;7.40;99.90
43143;DHT22;28750;59.842;17.584;2023-04-01T13:08:35;7.40;99.90
43143;DHT22;28750;59.842;17.584;2023-04-01T13:11:09;7.20;99.90
43143;DHT22;28750;59.842;17.584;2023-04-01T13:16:37;6.90;99.90
43143;DHT22;28750;59.842;17.584;2023-04-01T13:29:21;6.60;99.90
43143;DHT22;28750;59.842;17.584;2023-04-01T13:34:28;6.50;99.90
43143;DHT22;28750;59.842;17.584;2023-04-01T13:39:57;6.50;99.90
43143;DHT22;28750;59.842;17.584;2023-04-01T13:42:37;6.40;99.90
43143;DHT22;28750;59.842;17.584;2023-04-01T13:45:15;6.40;99.90
43143;DHT22;28750;59.842;17.584;2023-04-01T14:01:10;5.60;99.90
43143;DHT22;28750;59.842;17.584;2023-04-01T14:29:37;4.70;99.90
43143;DHT22;28750;59.842;17.584;2023-04-01T14:37:39;4.60;1.00
43143;DHT22;28750;59.842;17.584;2023-04-01T14:48:17;4.30;99.90
43143;DHT22;28750;59.842;17.584;2023-04-01T14:50:51;3.90;99.90
43143;DHT22;28750;59.842;17.584;2023-04-01T14:55:58;3.60;99.90
43143;DHT22;28750;59.842;17.584;2023-04-01T15:12:22;3.30;1.00
43143;DHT22;28750;59.842;17.584;2023-04-01T15:14:59;3.20;1.00
43143;DHT22;28750;59.842;17.584;2023-04-01T15:17:43;3.10;1.00
43143;DHT22;28750;59.842;17.584;2023-04-01T15:20:25;3.00;1.00
43143;DHT22;28750;59.842;17.584;2023-04-01T15:25:27;2.90;1.00
43143;DHT22;28750;59.842;17.584;2023-04-01T15:30:31;2.80;1.00
43143;DHT22;28750;59.842;17.584;2023-04-01T15:33:20;2.80;1.00
43143;DHT22;28750;59.842;17.584;2023-04-01T15:41:15;2.70;1.00
43143;DHT22;28750;59.842;17.584;2023-04-01T15:43:49;2.60;1.00
43143;DHT22;28750;59.842;17.584;2023-04-01T15:49:04;2.60;1.00
43143;DHT22;28750;59.842;17.584;2023-04-01T15:59:29;2.40;1.00
43143;DHT22;28750;59.842;17.584;2023-04-01T16:07:29;2.30;15.60
43143;DHT22;28750;59.842;17.584;2023-04-01T16:12:47;2.20;93.60
43143;DHT22;28750;59.842;17.584;2023-04-01T16:15:24;2.20;80.00
43143;DHT22;28750;59.842;17.584;2023-04-01T16:20:49;2.20;38.40
43143;DHT22;28750;59.842;17.584;2023-04-01T16:34:04;1.90;99.90
43143;DHT22;28750;59.842;17.584;2023-04-01T16:44:25;1.70;99.90
43143;DHT22;28750;59.842;17.584;2023-04-01T16:46:59;1.60;99.90
43143;DHT22;28750;59.842;17.584;2023-04-01T16:49:44;1.50;1.00
43143;DHT22;28750;59.842;17.584;2023-04-01T16:52:15;1.50;1.00
43143;DHT22;28750;59.842;17.584;2023-04-01T16:54:56;1.50;1.00
43143;DHT22;28750;59.842;17.584;2023-04-01T17:00:28;1.30;53.30
43143;DHT22;28750;59.842;17.584;2023-04-01T17:03:01;1.20;73.00
43143;DHT22;28750;59.842;17.584;2023-04-01T17:21:18;0.80;99.90
43143;DHT22;28750;59.842;17.584;2023-04-01T17:23:53;0.70;99.90
43143;DHT22;28750;59.842;17.584;2023-04-01T17:29:12;0.60;99.90
43143;DHT22;28750;59.842;17.584;2023-04-01T17:53:33;0.20;1.00
43143;DHT22;28750;59.842;17.584;2023-04-01T17:58:44;-0.10;56.40
43143;DHT22;28750;59.842;17.584;2023-04-01T18:11:44;-0.40;1.00
43143;DHT22;28750;59.842;17.584;2023-04-01T18:14:37;-0.50;1.00
43143;DHT22;28750;59.842;17.584;2023-04-01T18:22:29;-0.60;99.90
43143;DHT22;28750;59.842;17.584;2023-04-01T18:25:13;-0.70;99.90
43143;DHT22;28750;59.842;17.584;2023-04-01T18:27:47;-0.70;99.90
43143;DHT22;28750;59.842;17.584;2023-04-01T18:30:20;-0.70;99.90
43143;DHT22;28750;59.842;17.584;2023-04-01T18:46:11;-1.00;99.90
43143;DHT22;28750;59.842;17.584;2023-04-01T18:50:55;-1.10;1.00
43143;DHT22;28750;59.842;17.584;2023-04-01T18:56:10;-1.10;1.00
43143;DHT22;28750;59.842;17.584;2023-04-01T19:01:26;-1.10;1.00
43143;DHT22;28750;59.842;17.584;2023-04-01T19:09:30;-1.00;99.90
43143;DHT22;28750;59.842;17.584;2023-04-01T19:17:16;-1.30;99.90
43143;DHT22;28750;59.842;17.584;2023-04-01T19:28:17;-1.30;1.00
43143;DHT22;28750;59.842;17.584;2023-04-01T19:30:49;-1.30;99.90
43143;DHT22;28750;59.842;17.584;2023-04-01T19:38:52;-1.30;99.90
43143;DHT22;28750;59.842;17.584;2023-04-01T19:46:36;-1.40;99.90
43143;DHT22;28750;59.842;17.584;2023-04-01T19:49:11;-1.50;99.90
43143;DHT22;28750;59.842;17.584;2023-04-01T19:54:45;-1.50;99.90
43143;DHT22;28750;59.842;17.584;2023-04-01T20:02:45;-1.60;99.90
43143;DHT22;28750;59.842;17.584;2023-04-01T20:05:30;-1.70;99.90
43143;DHT22;28750;59.842;17.584;2023-04-01T20:08:07;-1.70;99.90
43143;DHT22;28750;59.842;17.584;2023-04-01T20:18:17;-1.90;1.00
43143;DHT22;28750;59.842;17.584;2023-04-01T20:26:32;-1.90;1.00
43143;DHT22;28750;59.842;17.584;2023-04-01T20:31:36;-2.00;59.80
43143;DHT22;28750;59.842;17.584;2023-04-01T20:39:31;-2.00;41.20
43143;DHT22;28750;59.842;17.584;2023-04-01T20:47:43;-2.30;99.90
43143;DHT22;28750;59.842;17.584;2023-04-01T21:01:10;-2.20;99.90
43143;DHT22;28750;59.842;17.584;2023-04-01T21:11:18;-2.40;99.90
43143;DHT22;28750;59.842;17.584;2023-04-01T21:19:56;-2.50;99.90
43143;DHT22;28750;59.842;17.584;2023-04-01T21:22:38;-2.50;99.90
43143;DHT22;28750;59.842;17.584;2023-04-01T21:25:29;-2.50;99.90
43143;DHT22;28750;59.842;17.584;2023-04-01T21:28:10;-2.40;99.90
43143;DHT22;28750;59.842;17.584;2023-04-01T21:30:59;-2.50;99.90
43143;DHT22;28750;59.842;17.584;2023-04-01T21:36:00;-2.50;99.90
43143;DHT22;28750;59.842;17.584;2023-04-01T21:55:08;-2.60;1.00
43143;DHT22;28750;59.842;17.584;2023-04-01T22:00:15;-2.70;1.00
43143;DHT22;28750;59.842;17.584;2023-04-01T22:15:58;-2.90;7.90
43143;DHT22;28750;59.842;17.584;2023-04-01T22:18:40;-2.90;27.30
43143;DHT22;28750;59.842;17.584;2023-04-01T22:21:18;-3.00;48.10
43143;DHT22;28750;59.842;17.584;2023-04-01T22:23:51;-2.80;20.80
43143;DHT22;28750;59.842;17.584;2023-04-01T22:31:51;-2.90;29.20
43143;DHT22;28750;59.842;17.584;2023-04-01T22:34:35;-3.00;16.20
43143;DHT22;28750;59.842;17.584;2023-04-01T22:37:10;-2.90;1.00
43143;DHT22;28750;59.842;17.584;2023-04-01T22:44:58;-3.10;1.00
43143;DHT22;28750;59.842;17.584;2023-04-01T22:47:35;-3.10;1.00
43143;DHT22;28750;59.842;17.584;2023-04-01T22:52:33;-3.20;2.00
43143;DHT22;28750;59.842;17.584;2023-04-01T22:55:13;-3.30;69.00
43143;DHT22;28750;59.842;17.584;2023-04-01T23:00:30;-3.10;41.00
43143;DHT22;28750;59.842;17.584;2023-04-01T23:03:08;-3.40;1.00
43143;DHT22;28750;59.842;17.584;2023-04-01T23:05:50;-3.50;14.80
43143;DHT22;28750;59.842;17.584;2023-04-01T23:11:07;-3.40;18.90
43143;DHT22;28750;59.842;17.584;2023-04-01T23:13:41;-3.50;1.00
43143;DHT22;28750;59.842;17.584;2023-04-01T23:16:14;-3.50;1.00
43143;DHT22;28750;59.842;17.584;2023-04-01T23:29:28;-3.80;99.90
43143;DHT22;28750;59.842;17.584;2023-04-01T23:32:03;-3.90;1.00
43143;DHT22;28750;59.842;17.584;2023-04-01T23:34:35;-3.80;1.00
43143;DHT22;28750;59.842;17.584;2023-04-01T23:37:10;-3.90;1.00
43143;DHT22;28750;59.842;17.584;2023-04-01T23:39:44;-4.00;1.00
43143;DHT22;28750;59.842;17.584;2023-04-01T23:44:41;-4.00;1.00
43143;DHT22;28750;59.842;17.584;2023-04-01T23:47:20;-4.00;1.00
43143;DHT22;28750;59.842;17.584;2023-04-01T23:49:51;-4.00;1.00
43143;DHT22;28750;59.842;17.584;2023-04-01T23:52:36;-4.10;99.90
43143;DHT22;28750;59.842;17.584;2023-04-01T23:55:13;-4.00;99.90
43143;DHT22;28750;59.842;17.584;2023-04-01T23:57:42;-3.90;99.90
